createdAt,value
2017-08-13T00:00:53.282Z,15.79
2017-08-13T00:01:53.279Z,15.76
2017-08-13T00:02:53.242Z,15.75
2017-08-13T00:03:53.237Z,15.77
2017-08-13T00:04:53.396Z,15.77
2017-08-13T00:05:53.272Z,15.77
2017-08-13T00:06:54.848Z,15.76
2017-08-13T00:07:53.224Z,15.77
2017-08-13T00:08:53.194Z,15.75
2017-08-13T00:09:53.290Z,15.77
2017-08-13T00:10:53.242Z,15.77
2017-08-13T00:11:53.246Z,15.77
2017-08-13T00:12:53.217Z,15.80
2017-08-13T00:13:53.181Z,15.80
2017-08-13T00:14:53.241Z,15.80
2017-08-13T00:15:53.239Z,15.80
2017-08-13T00:16:53.250Z,15.77
2017-08-13T00:17:53.310Z,15.76
2017-08-13T00:18:53.248Z,15.76
2017-08-13T00:19:53.741Z,15.73
2017-08-13T00:20:53.233Z,15.77
2017-08-13T00:21:53.235Z,15.77
2017-08-13T00:22:53.243Z,15.77
2017-08-13T00:23:53.223Z,15.77
2017-08-13T00:24:53.228Z,15.77
2017-08-13T00:25:53.246Z,15.77
2017-08-13T00:26:53.261Z,15.77
2017-08-13T00:27:53.182Z,15.75
2017-08-13T00:28:53.901Z,15.72
2017-08-13T00:29:53.244Z,15.67
2017-08-13T00:30:53.219Z,15.60
2017-08-13T00:31:53.276Z,15.53
2017-08-13T00:32:53.766Z,15.50
2017-08-13T00:33:53.255Z,15.48
2017-08-13T00:34:53.259Z,15.46
2017-08-13T00:35:53.254Z,15.43
2017-08-13T00:36:53.756Z,15.44
2017-08-13T00:37:53.273Z,15.46
2017-08-13T00:38:53.196Z,15.47
2017-08-13T00:39:53.270Z,15.50
2017-08-13T00:40:53.760Z,15.51
2017-08-13T00:41:53.243Z,15.52
2017-08-13T00:42:53.301Z,15.56
2017-08-13T00:43:53.176Z,15.57
2017-08-13T00:44:53.254Z,15.61
2017-08-13T00:45:53.249Z,15.64
2017-08-13T00:46:53.180Z,15.68
2017-08-13T00:47:53.222Z,15.68
2017-08-13T00:48:53.339Z,15.68
2017-08-13T00:49:53.202Z,15.68
2017-08-13T00:50:53.278Z,15.67
2017-08-13T00:51:53.271Z,15.68
2017-08-13T00:52:53.784Z,15.64
2017-08-13T00:53:53.217Z,15.64
2017-08-13T00:54:53.786Z,15.64
2017-08-13T00:55:53.273Z,15.61
2017-08-13T00:56:53.221Z,15.60
2017-08-13T00:57:53.308Z,15.63
2017-08-13T00:58:53.790Z,15.63
2017-08-13T00:59:53.280Z,15.64
2017-08-13T01:00:53.227Z,15.64
2017-08-13T01:01:53.249Z,15.65
2017-08-13T01:02:53.268Z,15.68
2017-08-13T01:03:53.253Z,15.68
2017-08-13T01:04:53.204Z,15.69
2017-08-13T01:05:53.213Z,15.71
2017-08-13T01:06:53.250Z,15.72
2017-08-13T01:07:53.215Z,15.72
2017-08-13T01:08:53.278Z,15.72
2017-08-13T01:09:53.184Z,15.72
2017-08-13T01:10:53.249Z,15.72
2017-08-13T01:11:53.812Z,15.72
2017-08-13T01:12:53.210Z,15.72
2017-08-13T01:13:54.309Z,15.72
2017-08-13T01:14:53.227Z,15.72
2017-08-13T01:15:53.240Z,15.72
2017-08-13T01:16:53.813Z,15.72
2017-08-13T01:17:53.816Z,15.71
2017-08-13T01:18:54.324Z,15.71
2017-08-13T01:19:53.195Z,15.69
2017-08-13T01:20:53.208Z,15.71
2017-08-13T01:21:53.185Z,15.71
2017-08-13T01:22:53.203Z,15.71
2017-08-13T01:23:54.824Z,15.69
2017-08-13T01:24:54.848Z,15.68
2017-08-13T01:25:53.223Z,15.68
2017-08-13T01:26:53.262Z,15.71
2017-08-13T01:27:53.233Z,15.71
2017-08-13T01:28:53.299Z,15.71
2017-08-13T01:29:53.181Z,15.72
2017-08-13T01:30:53.226Z,15.72
2017-08-13T01:31:53.226Z,15.72
2017-08-13T01:32:53.239Z,15.72
2017-08-13T01:33:53.256Z,15.72
2017-08-13T01:34:53.840Z,15.72
2017-08-13T01:35:53.196Z,15.72
2017-08-13T01:36:53.259Z,15.69
2017-08-13T01:37:53.220Z,15.68
2017-08-13T01:38:53.918Z,15.68
2017-08-13T01:39:53.272Z,15.64
2017-08-13T01:40:53.900Z,15.64
2017-08-13T01:41:53.852Z,15.63
2017-08-13T01:42:53.854Z,15.63
2017-08-13T01:43:53.257Z,15.63
2017-08-13T01:44:53.854Z,15.63
2017-08-13T01:45:53.179Z,15.60
2017-08-13T01:46:53.206Z,15.60
2017-08-13T01:47:53.278Z,15.57
2017-08-13T01:48:53.311Z,15.57
2017-08-13T01:49:53.887Z,15.59
2017-08-13T01:50:54.869Z,15.63
2017-08-13T01:51:53.261Z,15.61
2017-08-13T01:52:53.221Z,15.61
2017-08-13T01:53:53.202Z,15.64
2017-08-13T01:54:53.233Z,15.64
2017-08-13T01:55:53.211Z,15.65
2017-08-13T01:56:53.236Z,15.65
2017-08-13T01:57:54.875Z,15.67
2017-08-13T01:58:53.237Z,15.68
2017-08-13T01:59:53.226Z,15.69
2017-08-13T02:00:53.281Z,15.72
2017-08-13T02:01:53.264Z,15.72
2017-08-13T02:02:53.248Z,15.72
2017-08-13T02:03:53.888Z,15.72
2017-08-13T02:04:53.278Z,15.72
2017-08-13T02:05:53.304Z,15.71
2017-08-13T02:06:53.205Z,15.68
2017-08-13T02:07:53.234Z,15.64
2017-08-13T02:08:53.201Z,15.64
2017-08-13T02:09:53.897Z,15.64
2017-08-13T02:10:53.187Z,15.61
2017-08-13T02:11:53.203Z,15.59
2017-08-13T02:12:53.200Z,15.52
2017-08-13T02:13:53.206Z,15.48
2017-08-13T02:14:53.228Z,15.43
2017-08-13T02:15:53.901Z,15.40
2017-08-13T02:16:53.940Z,15.44
2017-08-13T02:17:53.193Z,15.50
2017-08-13T02:18:53.286Z,15.53
2017-08-13T02:19:53.214Z,15.60
2017-08-13T02:20:54.914Z,15.61
2017-08-13T02:21:53.273Z,15.64
2017-08-13T02:22:53.237Z,15.63
2017-08-13T02:23:53.209Z,15.63
2017-08-13T02:24:53.918Z,15.60
2017-08-13T02:25:53.192Z,15.60
2017-08-13T02:26:53.257Z,15.60
2017-08-13T02:27:53.163Z,15.56
2017-08-13T02:28:53.176Z,15.56
2017-08-13T02:29:53.924Z,15.56
2017-08-13T02:30:53.149Z,15.56
2017-08-13T02:31:53.238Z,15.57
2017-08-13T02:32:53.246Z,15.61
2017-08-13T02:33:53.946Z,15.61
2017-08-13T02:34:53.330Z,15.63
2017-08-13T02:35:53.225Z,15.61
2017-08-13T02:36:53.211Z,15.60
2017-08-13T02:37:53.205Z,15.59
2017-08-13T02:38:53.211Z,15.57
2017-08-13T02:39:53.219Z,15.57
2017-08-13T02:40:53.220Z,15.56
2017-08-13T02:41:53.225Z,15.53
2017-08-13T02:42:53.182Z,15.52
2017-08-13T02:43:53.203Z,15.52
2017-08-13T02:44:53.227Z,15.51
2017-08-13T02:45:53.222Z,15.52
2017-08-13T02:46:53.148Z,15.56
2017-08-13T02:47:54.950Z,15.55
2017-08-13T02:48:53.192Z,15.56
2017-08-13T02:49:53.218Z,15.56
2017-08-13T02:50:53.251Z,15.56
2017-08-13T02:51:54.195Z,15.56
2017-08-13T02:52:53.229Z,15.56
2017-08-13T02:53:53.202Z,15.57
2017-08-13T02:54:53.202Z,15.59
2017-08-13T02:55:53.262Z,15.60
2017-08-13T02:56:53.155Z,15.57
2017-08-13T02:57:53.188Z,15.57
2017-08-13T02:58:53.179Z,15.56
2017-08-13T02:59:53.205Z,15.56
2017-08-13T03:00:53.195Z,15.56
2017-08-13T03:01:54.973Z,15.56
2017-08-13T03:02:53.203Z,15.57
2017-08-13T03:03:53.156Z,15.60
2017-08-13T03:04:53.984Z,15.60
2017-08-13T03:05:53.279Z,15.57
2017-08-13T03:06:53.250Z,15.56
2017-08-13T03:07:53.191Z,15.56
2017-08-13T03:08:53.165Z,15.57
2017-08-13T03:09:53.177Z,15.56
2017-08-13T03:10:53.226Z,15.55
2017-08-13T03:11:53.147Z,15.56
2017-08-13T03:12:53.187Z,15.53
2017-08-13T03:13:53.172Z,15.52
2017-08-13T03:14:53.215Z,15.52
2017-08-13T03:15:53.175Z,15.51
2017-08-13T03:16:54.991Z,15.51
2017-08-13T03:17:53.184Z,15.51
2017-08-13T03:18:54.017Z,15.51
2017-08-13T03:19:53.337Z,15.52
2017-08-13T03:20:53.185Z,15.53
2017-08-13T03:21:53.647Z,15.55
2017-08-13T03:22:54.000Z,15.56
2017-08-13T03:23:53.203Z,15.56
2017-08-13T03:24:53.171Z,15.56
2017-08-13T03:25:53.129Z,15.55
2017-08-13T03:26:53.186Z,15.52
2017-08-13T03:27:54.009Z,15.52
2017-08-13T03:28:54.210Z,15.52
2017-08-13T03:29:53.161Z,15.51
2017-08-13T03:30:53.238Z,15.48
2017-08-13T03:31:53.207Z,15.47
2017-08-13T03:32:54.023Z,15.46
2017-08-13T03:33:53.226Z,15.44
2017-08-13T03:34:53.163Z,15.42
2017-08-13T03:35:53.209Z,15.40
2017-08-13T03:36:53.278Z,15.38
2017-08-13T03:37:53.169Z,15.40
2017-08-13T03:38:53.168Z,15.39
2017-08-13T03:39:54.025Z,15.34
2017-08-13T03:40:55.035Z,15.27
2017-08-13T03:41:53.197Z,15.27
2017-08-13T03:42:53.192Z,15.26
2017-08-13T03:43:53.196Z,15.26
2017-08-13T03:44:53.209Z,15.27
2017-08-13T03:45:53.212Z,15.27
2017-08-13T03:46:54.034Z,15.28
2017-08-13T03:47:53.211Z,15.31
2017-08-13T03:48:53.163Z,15.35
2017-08-13T03:49:53.210Z,15.35
2017-08-13T03:50:54.064Z,15.39
2017-08-13T03:51:54.044Z,15.42
2017-08-13T03:52:53.155Z,15.43
2017-08-13T03:53:53.234Z,15.42
2017-08-13T03:54:53.161Z,15.40
2017-08-13T03:55:53.161Z,15.39
2017-08-13T03:56:53.798Z,15.39
2017-08-13T03:57:53.186Z,15.39
2017-08-13T03:58:53.168Z,15.40
2017-08-13T03:59:53.193Z,15.44
2017-08-13T04:00:53.130Z,15.43
2017-08-13T04:01:53.157Z,15.47
2017-08-13T04:02:53.194Z,15.47
2017-08-13T04:03:53.245Z,15.51
2017-08-13T04:04:54.061Z,15.47
2017-08-13T04:05:53.177Z,15.43
2017-08-13T04:06:54.067Z,15.39
2017-08-13T04:07:53.205Z,15.36
2017-08-13T04:08:53.194Z,15.34
2017-08-13T04:09:53.136Z,15.28
2017-08-13T04:10:53.177Z,15.28
2017-08-13T04:11:53.104Z,15.26
2017-08-13T04:12:54.100Z,15.25
2017-08-13T04:13:53.124Z,15.25
2017-08-13T04:14:53.156Z,15.22
2017-08-13T04:15:53.195Z,15.21
2017-08-13T04:16:53.188Z,15.22
2017-08-13T04:17:53.222Z,15.21
2017-08-13T04:18:53.142Z,15.21
2017-08-13T04:19:53.197Z,15.22
2017-08-13T04:20:53.158Z,15.23
2017-08-13T04:21:53.178Z,15.22
2017-08-13T04:22:53.321Z,15.22
2017-08-13T04:23:53.189Z,15.18
2017-08-13T04:24:53.180Z,15.18
2017-08-13T04:25:53.594Z,15.18
2017-08-13T04:26:53.118Z,15.25
2017-08-13T04:27:53.213Z,15.27
2017-08-13T04:28:53.174Z,15.27
2017-08-13T04:29:54.098Z,15.30
2017-08-13T04:30:53.185Z,15.31
2017-08-13T04:31:53.099Z,15.28
2017-08-13T04:32:53.139Z,15.27
2017-08-13T04:33:53.182Z,15.35
2017-08-13T04:34:53.118Z,15.39
2017-08-13T04:35:53.141Z,15.43
2017-08-13T04:36:53.171Z,15.42
2017-08-13T04:37:54.116Z,15.40
2017-08-13T04:38:53.227Z,15.40
2017-08-13T04:39:53.615Z,15.42
2017-08-13T04:40:53.138Z,15.42
2017-08-13T04:41:53.107Z,15.40
2017-08-13T04:42:53.282Z,15.38
2017-08-13T04:43:53.223Z,15.36
2017-08-13T04:44:53.625Z,15.35
2017-08-13T04:45:53.137Z,15.38
2017-08-13T04:46:53.203Z,15.39
2017-08-13T04:47:53.178Z,15.43
2017-08-13T04:48:53.157Z,15.47
2017-08-13T04:49:53.165Z,15.47
2017-08-13T04:50:53.174Z,15.47
2017-08-13T04:51:53.642Z,15.50
2017-08-13T04:52:53.634Z,15.51
2017-08-13T04:53:53.209Z,15.52
2017-08-13T04:54:53.638Z,15.55
2017-08-13T04:55:53.147Z,15.56
2017-08-13T04:56:53.133Z,15.56
2017-08-13T04:57:53.648Z,15.57
2017-08-13T04:58:53.257Z,15.59
2017-08-13T04:59:53.187Z,15.60
2017-08-13T05:00:53.125Z,15.63
2017-08-13T05:01:53.145Z,15.64
2017-08-13T05:02:53.157Z,15.64
2017-08-13T05:03:53.182Z,15.68
2017-08-13T05:04:53.190Z,15.72
2017-08-13T05:05:53.153Z,15.73
2017-08-13T05:06:53.141Z,15.76
2017-08-13T05:07:53.210Z,15.79
2017-08-13T05:08:53.656Z,15.81
2017-08-13T05:09:53.172Z,15.81
2017-08-13T05:10:53.149Z,15.84
2017-08-13T05:11:53.159Z,15.82
2017-08-13T05:12:53.214Z,15.85
2017-08-13T05:13:53.225Z,15.86
2017-08-13T05:14:53.225Z,15.89
2017-08-13T05:15:53.155Z,15.89
2017-08-13T05:16:53.150Z,15.90
2017-08-13T05:17:53.679Z,15.90
2017-08-13T05:18:53.674Z,15.90
2017-08-13T05:19:53.199Z,15.93
2017-08-13T05:20:53.681Z,15.94
2017-08-13T05:21:53.676Z,15.96
2017-08-13T05:22:53.111Z,16.01
2017-08-13T05:23:53.184Z,16.06
2017-08-13T05:24:53.813Z,16.11
2017-08-13T05:25:53.131Z,16.19
2017-08-13T05:26:53.196Z,16.27
2017-08-13T05:27:53.131Z,16.38
2017-08-13T05:28:53.187Z,16.48
2017-08-13T05:29:53.691Z,16.57
2017-08-13T05:30:53.187Z,16.64
2017-08-13T05:31:53.126Z,16.70
2017-08-13T05:32:53.201Z,16.72
2017-08-13T05:33:53.145Z,16.75
2017-08-13T05:34:53.198Z,16.75
2017-08-13T05:35:53.135Z,16.72
2017-08-13T05:36:53.698Z,16.72
2017-08-13T05:37:53.208Z,16.70
2017-08-13T05:38:53.701Z,16.72
2017-08-13T05:39:53.227Z,16.72
2017-08-13T05:40:53.088Z,16.75
2017-08-13T05:41:53.144Z,16.75
2017-08-13T05:42:53.725Z,16.72
2017-08-13T05:43:53.173Z,16.70
2017-08-13T05:44:53.710Z,16.70
2017-08-13T05:45:53.132Z,16.68
2017-08-13T05:46:53.143Z,16.67
2017-08-13T05:47:53.211Z,16.68
2017-08-13T05:48:53.157Z,16.65
2017-08-13T05:49:53.720Z,16.65
2017-08-13T05:50:53.720Z,16.67
2017-08-13T05:51:53.079Z,16.67
2017-08-13T05:52:53.160Z,16.65
2017-08-13T05:53:53.724Z,16.68
2017-08-13T05:54:53.338Z,16.69
2017-08-13T05:55:53.136Z,16.70
2017-08-13T05:56:53.114Z,16.75
2017-08-13T05:57:53.122Z,16.77
2017-08-13T05:58:53.127Z,16.79
2017-08-13T05:59:53.170Z,16.82
2017-08-13T06:00:53.154Z,16.86
2017-08-13T06:01:53.872Z,16.89
2017-08-13T06:02:53.193Z,16.89
2017-08-13T06:03:53.128Z,16.93
2017-08-13T06:04:53.110Z,16.95
2017-08-13T06:05:53.744Z,17.00
2017-08-13T06:06:53.098Z,17.03
2017-08-13T06:07:53.139Z,17.07
2017-08-13T06:08:53.163Z,17.13
2017-08-13T06:09:53.141Z,17.20
2017-08-13T06:10:53.440Z,17.25
2017-08-13T06:11:53.159Z,17.32
2017-08-13T06:12:53.133Z,17.38
2017-08-13T06:13:53.129Z,17.43
2017-08-13T06:14:53.117Z,17.52
2017-08-13T06:15:53.866Z,17.61
2017-08-13T06:16:53.132Z,17.68
2017-08-13T06:17:53.192Z,17.72
2017-08-13T06:18:53.131Z,17.79
2017-08-13T06:19:53.098Z,17.85
2017-08-13T06:20:53.144Z,17.87
2017-08-13T06:21:53.095Z,17.89
2017-08-13T06:22:53.199Z,17.95
2017-08-13T06:23:53.768Z,17.93
2017-08-13T06:24:53.174Z,17.95
2017-08-13T06:25:53.772Z,17.96
2017-08-13T06:26:53.110Z,18.01
2017-08-13T06:27:54.814Z,18.03
2017-08-13T06:28:53.775Z,18.07
2017-08-13T06:29:53.092Z,18.13
2017-08-13T06:30:53.190Z,18.14
2017-08-13T06:31:53.804Z,18.14
2017-08-13T06:32:53.782Z,18.09
2017-08-13T06:33:53.099Z,18.04
2017-08-13T06:34:53.120Z,17.96
2017-08-13T06:35:53.141Z,18.01
2017-08-13T06:36:53.793Z,18.13
2017-08-13T06:37:53.111Z,18.39
2017-08-13T06:38:53.189Z,18.57
2017-08-13T06:39:53.907Z,18.71
2017-08-13T06:40:53.098Z,18.85
2017-08-13T06:41:53.806Z,19.00
2017-08-13T06:42:53.113Z,19.19
2017-08-13T06:43:53.118Z,19.28
2017-08-13T06:44:53.096Z,19.28
2017-08-13T06:45:53.965Z,19.23
2017-08-13T06:46:53.202Z,19.25
2017-08-13T06:47:53.099Z,19.26
2017-08-13T06:48:53.807Z,19.29
2017-08-13T06:49:53.188Z,19.44
2017-08-13T06:50:53.815Z,19.52
2017-08-13T06:51:53.147Z,19.54
2017-08-13T06:52:53.182Z,19.59
2017-08-13T06:53:53.122Z,19.64
2017-08-13T06:54:53.128Z,19.72
2017-08-13T06:55:53.108Z,19.80
2017-08-13T06:56:53.820Z,19.79
2017-08-13T06:57:53.098Z,19.80
2017-08-13T06:58:53.174Z,19.89
2017-08-13T06:59:53.095Z,19.95
2017-08-13T07:00:53.128Z,19.96
2017-08-13T07:01:53.175Z,19.96
2017-08-13T07:02:53.106Z,19.95
2017-08-13T07:03:53.107Z,20.00
2017-08-13T07:04:53.075Z,20.10
2017-08-13T07:05:53.076Z,20.17
2017-08-13T07:06:53.123Z,20.20
2017-08-13T07:07:53.151Z,20.22
2017-08-13T07:08:53.176Z,20.30
2017-08-13T07:09:53.119Z,20.37
2017-08-13T07:10:53.848Z,20.45
2017-08-13T07:11:53.129Z,20.54
2017-08-13T07:12:53.154Z,20.65
2017-08-13T07:13:53.846Z,20.78
2017-08-13T07:14:53.850Z,20.94
2017-08-13T07:15:53.157Z,20.88
2017-08-13T07:16:53.852Z,20.67
2017-08-13T07:17:53.045Z,20.39
2017-08-13T07:18:53.205Z,20.29
2017-08-13T07:19:53.061Z,20.27
2017-08-13T07:20:53.857Z,20.29
2017-08-13T07:21:53.155Z,20.23
2017-08-13T07:22:53.104Z,20.21
2017-08-13T07:23:53.179Z,20.26
2017-08-13T07:24:53.083Z,20.36
2017-08-13T07:25:53.119Z,20.52
2017-08-13T07:26:53.059Z,20.79
2017-08-13T07:27:53.154Z,21.02
2017-08-13T07:28:53.109Z,21.03
2017-08-13T07:29:53.890Z,20.81
2017-08-13T07:30:53.107Z,20.65
2017-08-13T07:31:53.111Z,20.56
2017-08-13T07:32:53.136Z,20.59
2017-08-13T07:33:53.105Z,20.62
2017-08-13T07:34:53.116Z,20.75
2017-08-13T07:35:53.144Z,20.76
2017-08-13T07:36:53.130Z,20.64
2017-08-13T07:37:53.116Z,20.56
2017-08-13T07:38:53.067Z,20.72
2017-08-13T07:39:53.136Z,20.98
2017-08-13T07:40:53.084Z,21.15
2017-08-13T07:41:53.093Z,21.20
2017-08-13T07:42:53.556Z,21.23
2017-08-13T07:43:53.115Z,21.28
2017-08-13T07:44:53.148Z,21.20
2017-08-13T07:45:53.200Z,21.19
2017-08-13T07:46:53.066Z,21.06
2017-08-13T07:47:53.140Z,20.88
2017-08-13T07:48:53.100Z,20.69
2017-08-13T07:49:54.022Z,20.45
2017-08-13T07:50:53.164Z,20.29
2017-08-13T07:51:53.102Z,20.20
2017-08-13T07:52:53.114Z,20.15
2017-08-13T07:53:53.139Z,20.28
2017-08-13T07:54:53.082Z,20.50
2017-08-13T07:55:53.072Z,20.71
2017-08-13T07:56:53.103Z,20.84
2017-08-13T07:57:53.117Z,20.81
2017-08-13T07:58:53.920Z,20.79
2017-08-13T07:59:53.938Z,20.72
2017-08-13T08:00:53.115Z,20.63
2017-08-13T08:01:53.139Z,20.54
2017-08-13T08:02:53.154Z,20.54
2017-08-13T08:03:53.173Z,20.54
2017-08-13T08:04:53.933Z,20.60
2017-08-13T08:05:53.928Z,20.63
2017-08-13T08:06:53.059Z,20.79
2017-08-13T08:07:53.095Z,21.00
2017-08-13T08:08:53.190Z,21.15
2017-08-13T08:09:53.166Z,21.28
2017-08-13T08:10:53.079Z,21.29
2017-08-13T08:11:53.949Z,21.20
2017-08-13T08:12:59.021Z,20.96
2017-08-13T08:13:53.130Z,20.71
2017-08-13T08:14:53.087Z,20.44
2017-08-13T08:15:53.079Z,20.23
2017-08-13T08:16:53.954Z,20.11
2017-08-13T08:17:53.138Z,19.96
2017-08-13T08:18:53.097Z,19.85
2017-08-13T08:19:53.974Z,19.78
2017-08-13T08:20:53.121Z,19.70
2017-08-13T08:21:53.096Z,19.62
2017-08-13T08:22:54.109Z,19.55
2017-08-13T08:23:53.115Z,19.46
2017-08-13T08:24:53.175Z,19.47
2017-08-13T08:25:53.097Z,19.62
2017-08-13T08:26:53.967Z,19.76
2017-08-13T08:27:53.973Z,20.02
2017-08-13T08:28:53.125Z,20.38
2017-08-13T08:29:53.176Z,20.70
2017-08-13T08:30:53.077Z,21.06
2017-08-13T08:31:53.149Z,21.39
2017-08-13T08:32:53.054Z,21.64
2017-08-13T08:33:53.131Z,21.85
2017-08-13T08:34:53.050Z,22.13
2017-08-13T08:35:53.106Z,22.23
2017-08-13T08:36:53.065Z,22.19
2017-08-13T08:37:53.075Z,22.11
2017-08-13T08:38:53.151Z,22.01
2017-08-13T08:39:53.121Z,21.77
2017-08-13T08:40:53.098Z,21.47
2017-08-13T08:41:53.123Z,21.19
2017-08-13T08:42:53.988Z,20.93
2017-08-13T08:43:54.495Z,20.67
2017-08-13T08:44:54.006Z,20.55
2017-08-13T08:45:53.108Z,20.62
2017-08-13T08:46:53.118Z,20.70
2017-08-13T08:47:53.135Z,20.81
2017-08-13T08:48:53.091Z,20.97
2017-08-13T08:49:54.005Z,21.12
2017-08-13T08:50:53.234Z,21.47
2017-08-13T08:51:53.230Z,21.82
2017-08-13T08:52:53.157Z,22.10
2017-08-13T08:53:53.068Z,22.31
2017-08-13T08:54:53.104Z,22.45
2017-08-13T08:55:53.065Z,22.69
2017-08-13T08:56:53.091Z,22.94
2017-08-13T08:57:53.514Z,23.11
2017-08-13T08:58:53.515Z,23.31
2017-08-13T08:59:53.093Z,23.38
2017-08-13T09:00:53.058Z,23.46
2017-08-13T09:01:53.079Z,23.60
2017-08-13T09:02:53.074Z,23.77
2017-08-13T09:03:53.180Z,23.81
2017-08-13T09:04:53.141Z,23.85
2017-08-13T09:05:53.080Z,23.87
2017-08-13T09:06:53.623Z,23.90
2017-08-13T09:07:53.067Z,24.00
2017-08-13T09:08:53.539Z,24.06
2017-08-13T09:09:53.084Z,23.98
2017-08-13T09:10:53.076Z,23.78
2017-08-13T09:11:53.077Z,23.53
2017-08-13T09:12:53.131Z,23.22
2017-08-13T09:13:53.089Z,23.02
2017-08-13T09:14:53.053Z,22.78
2017-08-13T09:15:53.082Z,22.48
2017-08-13T09:16:53.548Z,22.28
2017-08-13T09:17:53.049Z,22.13
2017-08-13T09:18:53.099Z,22.04
2017-08-13T09:19:53.105Z,21.98
2017-08-13T09:20:53.556Z,22.00
2017-08-13T09:21:53.061Z,21.95
2017-08-13T09:22:53.070Z,21.97
2017-08-13T09:23:53.173Z,22.12
2017-08-13T09:24:53.178Z,22.28
2017-08-13T09:25:55.559Z,22.37
2017-08-13T09:26:53.081Z,22.50
2017-08-13T09:27:53.141Z,22.60
2017-08-13T09:28:53.058Z,22.70
2017-08-13T09:29:53.570Z,22.79
2017-08-13T09:30:53.567Z,22.95
2017-08-13T09:31:53.149Z,23.11
2017-08-13T09:32:53.047Z,23.19
2017-08-13T09:33:53.116Z,23.29
2017-08-13T09:34:53.127Z,23.43
2017-08-13T09:35:53.083Z,23.55
2017-08-13T09:36:53.046Z,23.72
2017-08-13T09:37:53.092Z,23.84
2017-08-13T09:38:53.084Z,23.92
2017-08-13T09:39:53.062Z,23.84
2017-08-13T09:40:53.082Z,23.72
2017-08-13T09:41:53.051Z,23.65
2017-08-13T09:42:53.099Z,23.60
2017-08-13T09:43:53.096Z,23.45
2017-08-13T09:44:53.620Z,23.32
2017-08-13T09:45:53.068Z,23.19
2017-08-13T09:46:53.147Z,23.06
2017-08-13T09:47:53.599Z,22.97
2017-08-13T09:48:53.718Z,22.84
2017-08-13T09:49:53.075Z,22.86
2017-08-13T09:50:53.285Z,23.04
2017-08-13T09:51:53.199Z,23.17
2017-08-13T09:52:53.603Z,23.36
2017-08-13T09:53:54.613Z,23.57
2017-08-13T09:54:53.030Z,23.71
2017-08-13T09:55:53.090Z,23.76
2017-08-13T09:56:53.164Z,23.87
2017-08-13T09:57:53.172Z,24.01
2017-08-13T09:58:53.614Z,24.12
2017-08-13T09:59:53.035Z,24.14
2017-08-13T10:00:53.069Z,24.03
2017-08-13T10:01:53.062Z,23.90
2017-08-13T10:02:53.624Z,23.65
2017-08-13T10:03:53.059Z,23.37
2017-08-13T10:04:53.103Z,23.20
2017-08-13T10:05:53.075Z,23.20
2017-08-13T10:06:53.317Z,23.07
2017-08-13T10:07:53.098Z,23.09
2017-08-13T10:08:53.071Z,23.12
2017-08-13T10:09:53.040Z,23.18
2017-08-13T10:10:53.109Z,23.21
2017-08-13T10:11:53.094Z,23.25
2017-08-13T10:12:53.082Z,23.25
2017-08-13T10:13:53.003Z,23.28
2017-08-13T10:14:53.061Z,23.40
2017-08-13T10:15:53.664Z,23.51
2017-08-13T10:16:53.714Z,23.47
2017-08-13T10:17:53.648Z,23.50
2017-08-13T10:18:53.052Z,23.57
2017-08-13T10:19:53.076Z,23.69
2017-08-13T10:20:53.044Z,23.87
2017-08-13T10:21:53.105Z,24.07
2017-08-13T10:22:53.102Z,24.11
2017-08-13T10:23:53.048Z,24.25
2017-08-13T10:24:53.675Z,24.45
2017-08-13T10:25:53.027Z,24.65
2017-08-13T10:26:53.194Z,24.70
2017-08-13T10:27:53.083Z,24.80
2017-08-13T10:28:53.037Z,24.95
2017-08-13T10:29:53.010Z,25.14
2017-08-13T10:30:53.696Z,25.17
2017-08-13T10:31:53.671Z,25.25
2017-08-13T10:32:53.035Z,25.29
2017-08-13T10:33:53.073Z,25.27
2017-08-13T10:34:53.066Z,25.11
2017-08-13T10:35:54.732Z,25.32
2017-08-13T10:36:53.093Z,25.54
2017-08-13T10:37:53.396Z,25.64
2017-08-13T10:38:53.079Z,25.76
2017-08-13T10:39:53.046Z,25.79
2017-08-13T10:40:53.686Z,25.79
2017-08-13T10:41:53.135Z,25.82
2017-08-13T10:42:53.072Z,25.85
2017-08-13T10:43:53.093Z,25.70
2017-08-13T10:44:53.035Z,25.46
2017-08-13T10:45:53.079Z,25.19
2017-08-13T10:46:53.005Z,24.70
2017-08-13T10:47:53.392Z,24.17
2017-08-13T10:48:53.732Z,23.70
2017-08-13T10:49:53.701Z,23.32
2017-08-13T10:50:53.036Z,22.96
2017-08-13T10:51:53.703Z,22.69
2017-08-13T10:52:53.064Z,22.53
2017-08-13T10:53:53.046Z,22.37
2017-08-13T10:54:53.058Z,22.22
2017-08-13T10:55:53.055Z,22.22
2017-08-13T10:56:53.711Z,22.32
2017-08-13T10:57:53.082Z,22.47
2017-08-13T10:58:53.073Z,22.65
2017-08-13T10:59:52.998Z,22.93
2017-08-13T11:00:53.109Z,23.19
2017-08-13T11:01:53.061Z,23.60
2017-08-13T11:02:53.158Z,23.95
2017-08-13T11:03:53.107Z,24.36
2017-08-13T11:04:53.076Z,24.63
2017-08-13T11:05:53.062Z,24.85
2017-08-13T11:06:53.004Z,25.01
2017-08-13T11:07:53.442Z,25.12
2017-08-13T11:08:53.733Z,25.21
2017-08-13T11:09:53.056Z,25.44
2017-08-13T11:10:53.066Z,25.63
2017-08-13T11:11:53.094Z,25.95
2017-08-13T11:12:54.237Z,26.04
2017-08-13T11:13:53.746Z,26.12
2017-08-13T11:14:53.760Z,26.15
2017-08-13T11:15:53.747Z,26.21
2017-08-13T11:16:53.851Z,26.17
2017-08-13T11:17:53.050Z,26.12
2017-08-13T11:18:53.089Z,26.14
2017-08-13T11:19:53.159Z,26.21
2017-08-13T11:20:53.101Z,26.17
2017-08-13T11:21:53.058Z,25.98
2017-08-13T11:22:53.754Z,25.98
2017-08-13T11:23:53.109Z,25.92
2017-08-13T11:24:53.119Z,25.94
2017-08-13T11:25:53.015Z,25.88
2017-08-13T11:26:53.044Z,25.95
2017-08-13T11:27:53.764Z,25.87
2017-08-13T11:28:53.111Z,25.92
2017-08-13T11:29:53.100Z,25.70
2017-08-13T11:30:53.099Z,25.40
2017-08-13T11:31:53.051Z,25.04
2017-08-13T11:32:53.058Z,24.71
2017-08-13T11:33:53.092Z,24.54
2017-08-13T11:34:53.120Z,24.35
2017-08-13T11:35:53.012Z,24.32
2017-08-13T11:36:52.987Z,24.22
2017-08-13T11:37:53.030Z,24.22
2017-08-13T11:38:53.074Z,24.13
2017-08-13T11:39:52.983Z,23.98
2017-08-13T11:40:53.063Z,23.85
2017-08-13T11:41:53.057Z,23.70
2017-08-13T11:42:54.801Z,23.53
2017-08-13T11:43:53.049Z,23.44
2017-08-13T11:44:53.032Z,23.39
2017-08-13T11:45:53.102Z,23.37
2017-08-13T11:46:53.047Z,23.42
2017-08-13T11:47:52.986Z,23.57
2017-08-13T11:48:53.102Z,23.79
2017-08-13T11:49:52.997Z,23.90
2017-08-13T11:50:53.806Z,23.95
2017-08-13T11:51:53.020Z,23.95
2017-08-13T11:52:53.016Z,23.89
2017-08-13T11:53:53.092Z,23.84
2017-08-13T11:54:53.053Z,23.87
2017-08-13T11:55:53.820Z,23.92
2017-08-13T11:56:53.045Z,23.98
2017-08-13T11:57:53.016Z,24.04
2017-08-13T11:58:53.820Z,24.04
2017-08-13T11:59:53.034Z,24.12
2017-08-13T12:00:53.135Z,24.13
2017-08-13T12:01:53.015Z,24.15
2017-08-13T12:02:54.339Z,24.03
2017-08-13T12:03:53.009Z,23.84
2017-08-13T12:04:53.082Z,23.70
2017-08-13T12:05:53.100Z,23.70
2017-08-13T12:06:53.110Z,23.77
2017-08-13T12:07:53.019Z,23.87
2017-08-13T12:08:53.057Z,23.94
2017-08-13T12:09:53.541Z,24.04
2017-08-13T12:10:53.126Z,24.28
2017-08-13T12:11:53.079Z,24.48
2017-08-13T12:12:53.860Z,24.62
2017-08-13T12:13:53.014Z,24.82
2017-08-13T12:14:53.570Z,25.01
2017-08-13T12:15:53.003Z,25.04
2017-08-13T12:16:53.071Z,25.04
2017-08-13T12:17:53.003Z,25.07
2017-08-13T12:18:53.020Z,25.36
2017-08-13T12:19:53.105Z,25.68
2017-08-13T12:20:53.974Z,25.95
2017-08-13T12:21:53.007Z,26.36
2017-08-13T12:22:53.019Z,26.76
2017-08-13T12:23:53.065Z,27.10
2017-08-13T12:24:53.050Z,27.48
2017-08-13T12:25:52.978Z,27.65
2017-08-13T12:26:53.014Z,27.95
2017-08-13T12:27:53.082Z,28.12
2017-08-13T12:28:53.045Z,28.25
2017-08-13T12:29:53.583Z,28.39
2017-08-13T12:30:53.880Z,28.45
2017-08-13T12:31:52.990Z,28.22
2017-08-13T12:32:53.086Z,27.92
2017-08-13T12:33:52.988Z,27.89
2017-08-13T12:34:53.073Z,27.95
2017-08-13T12:35:53.078Z,27.86
2017-08-13T12:36:53.046Z,27.76
2017-08-13T12:37:53.027Z,27.69
2017-08-13T12:38:53.004Z,27.84
2017-08-13T12:39:53.069Z,27.60
2017-08-13T12:40:53.894Z,27.36
2017-08-13T12:41:53.055Z,27.21
2017-08-13T12:42:53.002Z,27.06
2017-08-13T12:43:53.061Z,27.18
2017-08-13T12:44:53.056Z,27.21
2017-08-13T12:45:53.121Z,27.21
2017-08-13T12:46:53.013Z,27.56
2017-08-13T12:47:53.068Z,27.95
2017-08-13T12:48:52.964Z,28.09
2017-08-13T12:49:53.029Z,28.11
2017-08-13T12:50:53.117Z,28.14
2017-08-13T12:51:52.988Z,28.12
2017-08-13T12:52:53.922Z,28.07